Time;durP1;ratioP1;P1;durP2;ratioP2;P2;SDS_P1;SDS_P2;PMS_P1;PMS_P2;Temp;Humidity;BMP_temperature;BMP_pressure;BME280_temperature;BME280_humidity;BME280_pressure;Samples;Min_cycle;Max_cycle;Signal;HPM_P1;HPM_P2
2022/10/27 00:00:46;;;;;;;5.40;2.23;;;16.10;99.90;;;;;;5057099;28;20225;-75
2022/10/27 00:03:14;;;;;;;8.32;2.60;;;16.10;99.90;;;;;;5056309;28;20936;-75
2022/10/27 00:05:42;;;;;;;4.50;1.73;;;16.10;99.90;;;;;;5057504;28;20203;-75
2022/10/27 00:08:08;;;;;;;7.17;1.90;;;16.10;99.90;;;;;;5057088;28;20202;-75
2022/10/27 00:10:35;;;;;;;7.30;2.17;;;16.10;99.90;;;;;;5057483;28;20202;-75
2022/10/27 00:13:06;;;;;;;4.13;2.00;;;16.00;99.90;;;;;;5056507;28;20211;-76
2022/10/27 00:15:32;;;;;;;4.47;2.00;;;16.00;99.90;;;;;;5056450;28;20206;-75
2022/10/27 00:18:01;;;;;;;4.53;2.30;;;16.00;99.90;;;;;;5057603;28;20688;-76
2022/10/27 00:20:27;;;;;;;8.73;2.30;;;15.90;99.90;;;;;;5057606;28;20198;-75
2022/10/27 00:22:54;;;;;;;7.70;2.03;;;15.80;99.90;;;;;;5056278;28;20616;-75
2022/10/27 00:25:22;;;;;;;4.90;2.13;;;15.80;99.90;;;;;;5057233;28;20205;-76
2022/10/27 00:27:49;;;;;;;5.37;1.80;;;15.80;99.90;;;;;;5056507;28;20289;-75
2022/10/27 00:30:18;;;;;;;6.20;2.27;;;15.80;99.90;;;;;;5057554;28;20190;-78
2022/10/27 00:32:45;;;;;;;6.23;1.93;;;15.80;99.90;;;;;;5057144;28;20613;-76
2022/10/27 00:35:13;;;;;;;6.97;2.42;;;15.80;99.90;;;;;;5054921;28;20433;-76
2022/10/27 00:37:41;;;;;;;4.23;1.97;;;15.90;99.90;;;;;;5056521;28;20235;-77
2022/10/27 00:40:12;;;;;;;4.33;2.17;;;15.90;99.90;;;;;;5056318;28;20206;-76
2022/10/27 00:42:38;;;;;;;5.93;2.60;;;15.80;99.90;;;;;;5057407;28;20678;-75
2022/10/27 00:45:07;;;;;;;4.23;2.00;;;15.80;99.90;;;;;;5057375;28;20206;-74
2022/10/27 00:47:36;;;;;;;6.20;1.90;;;15.70;99.90;;;;;;5056264;28;20551;-75
2022/10/27 00:50:07;;;;;;;4.83;1.97;;;15.70;99.90;;;;;;5038124;28;20241;-75
2022/10/27 00:52:39;;;;;;;9.00;2.73;;;15.60;99.90;;;;;;5056950;28;20681;-76
2022/10/27 00:55:10;;;;;;;6.60;2.23;;;15.70;99.90;;;;;;5056612;28;20210;-75
2022/10/27 00:57:39;;;;;;;5.87;2.30;;;15.60;99.90;;;;;;5058267;28;20232;-76
2022/10/27 01:00:09;;;;;;;9.30;2.07;;;15.60;99.90;;;;;;5056431;28;20275;-75
2022/10/27 01:02:36;;;;;;;6.97;2.40;;;15.60;99.90;;;;;;5056839;28;20698;-75
2022/10/27 01:05:09;;;;;;;4.37;2.57;;;15.60;99.90;;;;;;5056111;28;20203;-75
2022/10/27 01:07:38;;;;;;;5.67;2.57;;;15.60;99.90;;;;;;5057605;28;20213;-77
2022/10/27 01:10:05;;;;;;;7.10;2.03;;;15.50;99.90;;;;;;5057255;28;20212;-75
2022/10/27 01:12:33;;;;;;;3.47;1.97;;;15.50;99.90;;;;;;5057528;28;20213;-77
2022/10/27 01:15:01;;;;;;;5.90;2.13;;;15.40;99.90;;;;;;5056959;28;20210;-75
2022/10/27 01:17:41;;;;;;;11.33;2.53;;;15.40;99.90;;;;;;5058087;28;20232;-76
2022/10/27 01:20:42;;;;;;;5.70;2.00;;;15.40;99.90;;;;;;5057247;28;20664;-75
2022/10/27 01:23:20;;;;;;;6.40;2.17;;;15.40;99.90;;;;;;5057271;28;20213;-75
2022/10/27 01:26:19;;;;;;;5.30;1.80;;;15.30;99.90;;;;;;5057231;28;20212;-77
2022/10/27 01:29:24;;;;;;;9.50;2.50;;;15.30;99.90;;;;;;5055705;28;20209;-75
2022/10/27 01:32:03;;;;;;;8.33;2.27;;;15.20;99.90;;;;;;5056788;28;20203;-76
2022/10/27 01:34:36;;;;;;;3.43;1.70;;;15.10;99.90;;;;;;5056315;28;20215;-76
2022/10/27 01:37:11;;;;;;;6.87;2.37;;;15.10;99.90;;;;;;5055997;28;20221;-74
2022/10/27 01:39:58;;;;;;;9.47;2.40;;;15.10;99.90;;;;;;5056224;28;20208;-76
2022/10/27 01:42:32;;;;;;;5.73;2.23;;;15.00;99.90;;;;;;5056362;28;20235;-76
2022/10/27 01:45:01;;;;;;;5.87;2.27;;;15.00;99.90;;;;;;5056529;28;20230;-76
2022/10/27 01:47:31;;;;;;;6.70;2.50;;;14.90;99.90;;;;;;5060505;28;20573;-76
2022/10/27 01:50:00;;;;;;;11.50;2.80;;;14.90;99.90;;;;;;5060080;28;20296;-77
2022/10/27 01:52:45;;;;;;;7.23;2.53;;;14.90;99.90;;;;;;5061035;28;20205;-75
2022/10/27 01:55:17;;;;;;;4.90;2.63;;;14.90;99.90;;;;;;5059329;28;20204;-74
2022/10/27 01:58:23;;;;;;;5.87;2.37;;;14.90;99.90;;;;;;5061649;28;20230;-76
2022/10/27 02:01:00;;;;;;;7.43;2.73;;;14.90;99.90;;;;;;5018760;28;20238;-76
2022/10/27 02:03:35;;;;;;;5.57;2.40;;;14.90;99.90;;;;;;5060203;28;20204;-74
2022/10/27 02:06:08;;;;;;;8.77;2.70;;;15.00;99.90;;;;;;5059815;28;20203;-75
2022/10/27 02:08:48;;;;;;;7.60;3.07;;;15.00;99.90;;;;;;5058270;28;20193;-76
2022/10/27 02:11:15;;;;;;;9.33;2.70;;;15.00;99.90;;;;;;5038028;28;20215;-75
2022/10/27 02:13:45;;;;;;;7.43;2.93;;;14.90;99.90;;;;;;5039574;28;20212;-77
2022/10/27 02:16:19;;;;;;;4.70;2.73;;;14.90;99.90;;;;;;5038869;28;20277;-75
2022/10/27 02:18:52;;;;;;;3.87;2.10;;;14.90;99.90;;;;;;5038536;28;20200;-75
2022/10/27 02:21:20;;;;;;;6.10;2.70;;;14.90;99.90;;;;;;5039786;28;20202;-77
2022/10/27 02:23:48;;;;;;;4.50;2.33;;;14.90;99.90;;;;;;5039690;28;20209;-75
2022/10/27 02:26:26;;;;;;;8.70;2.53;;;15.00;99.90;;;;;;5040785;28;20205;-75
2022/10/27 02:28:58;;;;;;;4.93;2.50;;;14.90;99.90;;;;;;5040592;28;20204;-75
2022/10/27 02:31:34;;;;;;;8.17;2.73;;;14.90;99.90;;;;;;5039840;28;20213;-75
2022/10/27 02:34:05;;;;;;;5.57;2.70;;;14.90;99.90;;;;;;5040163;28;20231;-76
2022/10/27 02:36:33;;;;;;;7.43;2.77;;;14.90;99.90;;;;;;5039173;28;20231;-75
2022/10/27 02:39:02;;;;;;;5.47;2.87;;;14.90;99.90;;;;;;5039113;28;20204;-75
2022/10/27 02:41:29;;;;;;;7.40;3.25;;;14.90;99.90;;;;;;5038843;28;20477;-76
2022/10/27 02:43:56;;;;;;;9.30;3.20;;;14.90;99.90;;;;;;5039675;28;20544;-75
2022/10/27 02:46:24;;;;;;;10.57;2.87;;;14.90;99.90;;;;;;5039957;28;20210;-75
2022/10/27 02:48:50;;;;;;;8.37;2.97;;;15.00;99.90;;;;;;5038028;28;20672;-76
2022/10/27 02:51:19;;;;;;;5.13;2.70;;;15.00;99.90;;;;;;5040159;28;20209;-75
2022/10/27 02:53:47;;;;;;;5.60;2.53;;;15.00;99.90;;;;;;5038731;28;20204;-74
2022/10/27 02:56:15;;;;;;;7.20;2.57;;;15.00;99.90;;;;;;5038486;28;20550;-76
2022/10/27 02:58:42;;;;;;;6.27;2.53;;;15.00;99.90;;;;;;5037924;28;20213;-76
2022/10/27 03:01:09;;;;;;;8.83;2.80;;;15.00;99.90;;;;;;5039530;28;20220;-75
2022/10/27 03:03:36;;;;;;;10.63;2.93;;;14.90;99.90;;;;;;5039057;28;20226;-75
2022/10/27 03:06:03;;;;;;;10.93;2.87;;;15.00;99.90;;;;;;5038290;28;20200;-74
2022/10/27 03:08:31;;;;;;;5.77;2.60;;;14.90;99.90;;;;;;5036856;28;20204;-75
2022/10/27 03:10:58;;;;;;;4.53;2.63;;;14.80;99.90;;;;;;5037596;28;20282;-74
2022/10/27 03:13:25;;;;;;;8.07;3.20;;;14.80;99.90;;;;;;5037106;28;20431;-75
2022/10/27 03:15:52;;;;;;;5.93;2.37;;;14.90;99.90;;;;;;5037757;28;20964;-75
2022/10/27 03:18:20;;;;;;;5.90;2.53;;;14.90;99.90;;;;;;5039481;28;20250;-75
2022/10/27 03:20:47;;;;;;;8.67;2.67;;;14.90;99.90;;;;;;5038084;28;20209;-76
2022/10/27 03:23:13;;;;;;;4.73;2.43;;;14.90;99.90;;;;;;5037829;28;20208;-75
2022/10/27 03:25:43;;;;;;;23.30;3.03;;;14.80;99.90;;;;;;5038962;28;20200;-75
2022/10/27 03:28:12;;;;;;;6.50;2.63;;;14.80;99.90;;;;;;5038686;28;20211;-76
2022/10/27 03:30:39;;;;;;;5.70;2.50;;;14.80;99.90;;;;;;5039104;28;20200;-75
2022/10/27 03:33:06;;;;;;;6.37;1.93;;;14.90;99.90;;;;;;5037901;28;20205;-75
2022/10/27 03:35:33;;;;;;;5.80;2.60;;;14.80;99.90;;;;;;5038178;28;20200;-75
2022/10/27 03:38:01;;;;;;;8.97;2.47;;;15.00;99.90;;;;;;5038087;28;20255;-76
2022/10/27 03:40:31;;;;;;;5.87;2.30;;;15.00;99.90;;;;;;5038574;28;20204;-74
2022/10/27 03:43:00;;;;;;;5.50;2.20;;;15.00;99.90;;;;;;5038334;28;20240;-74
2022/10/27 03:45:28;;;;;;;5.27;2.00;;;15.10;99.90;;;;;;5038227;28;20194;-77
2022/10/27 03:48:02;;;;;;;6.77;1.90;;;15.10;99.90;;;;;;5037792;28;20212;-77
2022/10/27 03:50:29;;;;;;;3.97;2.10;;;15.10;99.90;;;;;;5038553;28;20190;-75
2022/10/27 03:52:56;;;;;;;2.87;2.03;;;15.10;99.90;;;;;;5038883;28;20201;-74
2022/10/27 03:55:24;;;;;;;5.03;2.23;;;15.10;99.90;;;;;;5038137;28;20208;-76
2022/10/27 03:57:51;;;;;;;4.27;1.93;;;15.10;99.90;;;;;;5038850;28;20236;-76
2022/10/27 04:00:20;;;;;;;6.53;2.43;;;15.10;99.90;;;;;;5038107;28;20229;-74
2022/10/27 04:02:49;;;;;;;5.90;2.87;;;15.10;99.90;;;;;;5039073;28;20208;-75
2022/10/27 04:05:15;;;;;;;3.97;2.13;;;15.10;99.90;;;;;;5037800;28;20201;-75
2022/10/27 04:07:42;;;;;;;9.13;2.87;;;15.00;99.90;;;;;;5037564;28;20208;-76
2022/10/27 04:10:18;;;;;;;6.90;2.50;;;15.00;99.90;;;;;;5037182;28;20209;-76
2022/10/27 04:13:09;;;;;;;7.00;2.20;;;15.00;99.90;;;;;;5053357;28;20213;-76
2022/10/27 04:15:38;;;;;;;6.73;2.70;;;14.90;99.90;;;;;;5040717;28;20213;-76
2022/10/27 04:18:05;;;;;;;4.37;2.53;;;14.80;99.90;;;;;;5035527;28;20232;-77
2022/10/27 04:20:32;;;;;;;6.50;2.87;;;14.80;99.90;;;;;;5035909;28;20619;-76
2022/10/27 04:22:59;;;;;;;6.67;2.93;;;14.80;99.90;;;;;;5036211;28;20208;-77
2022/10/27 04:25:27;;;;;;;5.90;2.60;;;14.80;99.90;;;;;;5035971;28;20208;-76
2022/10/27 04:28:01;;;;;;;6.70;2.70;;;14.80;99.90;;;;;;5035625;28;20201;-76
2022/10/27 04:30:29;;;;;;;7.10;2.07;;;14.80;99.90;;;;;;5036336;28;20192;-77
2022/10/27 04:32:57;;;;;;;10.70;2.60;;;14.80;99.90;;;;;;5037074;28;20555;-76
2022/10/27 04:35:23;;;;;;;6.67;2.70;;;14.70;99.90;;;;;;5036605;28;20209;-79
2022/10/27 04:37:50;;;;;;;4.60;2.63;;;14.70;99.90;;;;;;5036601;28;20238;-76
2022/10/27 04:40:25;;;;;;;4.47;2.50;;;14.70;99.90;;;;;;5040350;28;20194;-79
2022/10/27 04:42:52;;;;;;;7.43;2.50;;;14.70;99.90;;;;;;5040436;28;20258;-79
2022/10/27 04:45:24;;;;;;;6.70;2.63;;;14.70;99.90;;;;;;5040125;28;20222;-79
2022/10/27 04:48:11;;;;;;;8.40;2.60;;;14.60;99.90;;;;;;5039801;28;20193;-79
2022/10/27 04:50:40;;;;;;;8.90;3.20;;;14.60;99.90;;;;;;5044758;28;20213;-80
2022/10/27 04:53:08;;;;;;;7.43;2.90;;;14.70;99.90;;;;;;5041749;28;20659;-80
2022/10/27 04:55:39;;;;;;;9.43;3.97;;;14.70;99.90;;;;;;5024502;28;20210;-80
2022/10/27 04:58:06;;;;;;;4.90;3.00;;;14.70;99.90;;;;;;5041473;28;20698;-80
2022/10/27 05:00:33;;;;;;;6.50;3.40;;;14.70;99.90;;;;;;5044765;28;20234;-80
2022/10/27 05:03:06;;;;;;;7.17;3.00;;;14.60;99.90;;;;;;5041035;28;20200;-80
2022/10/27 05:05:36;;;;;;;6.47;3.93;;;14.70;99.90;;;;;;5040997;28;20680;-80
2022/10/27 05:08:04;;;;;;;7.67;2.87;;;14.60;99.90;;;;;;5040406;28;20216;-79
2022/10/27 05:10:34;;;;;;;9.23;3.00;;;14.50;99.90;;;;;;5039956;28;20247;-80
2022/10/27 05:13:08;;;;;;;5.57;3.13;;;14.50;99.90;;;;;;5039637;28;20654;-79
2022/10/27 05:15:37;;;;;;;8.00;3.47;;;14.40;99.90;;;;;;5037981;28;20208;-79
2022/10/27 05:18:08;;;;;;;5.63;3.20;;;14.40;99.90;;;;;;5038151;28;20228;-80
2022/10/27 05:20:35;;;;;;;5.60;2.53;;;14.40;99.90;;;;;;5038862;28;20195;-79
2022/10/27 05:23:01;;;;;;;6.00;2.47;;;14.40;99.90;;;;;;5031197;28;20673;-81
2022/10/27 05:25:34;;;;;;;6.63;2.90;;;14.40;99.90;;;;;;5032026;28;20209;-79
2022/10/27 05:28:04;;;;;;;6.23;2.60;;;14.40;99.90;;;;;;5040156;28;20208;-79
2022/10/27 05:30:30;;;;;;;9.03;3.20;;;14.40;99.90;;;;;;5040056;28;20623;-80
2022/10/27 05:33:08;;;;;;;6.37;2.87;;;14.40;99.90;;;;;;5040103;28;20211;-80
2022/10/27 05:35:36;;;;;;;9.30;3.07;;;14.40;99.90;;;;;;5040497;28;20214;-81
2022/10/27 05:38:03;;;;;;;5.43;2.93;;;14.50;99.90;;;;;;5039992;28;20237;-80
2022/10/27 05:40:33;;;;;;;6.30;3.03;;;14.50;99.90;;;;;;5040757;28;20196;-79
2022/10/27 05:43:06;;;;;;;7.47;2.80;;;14.50;99.90;;;;;;5041540;28;20199;-79
2022/10/27 05:45:36;;;;;;;6.00;2.80;;;14.50;99.90;;;;;;5040435;28;20211;-79
2022/10/27 05:48:06;;;;;;;8.77;2.60;;;14.50;99.90;;;;;;5040895;28;20207;-80
2022/10/27 05:50:36;;;;;;;6.87;2.60;;;14.50;99.90;;;;;;5041574;28;20270;-78
2022/10/27 05:53:03;;;;;;;7.93;3.13;;;14.60;99.90;;;;;;5059082;28;20437;-80
2022/10/27 05:55:33;;;;;;;7.13;2.67;;;14.50;99.90;;;;;;5061758;28;20679;-81
2022/10/27 05:58:11;;;;;;;9.17;2.80;;;14.50;99.90;;;;;;5063615;28;20219;-81
2022/10/27 06:00:39;;;;;;;11.33;2.30;;;14.60;99.90;;;;;;5062548;28;20309;-81
2022/10/27 06:03:10;;;;;;;5.90;2.70;;;14.60;99.90;;;;;;5060734;28;20299;-81
2022/10/27 06:05:52;;;;;;;4.00;2.30;;;14.60;99.90;;;;;;5060308;28;20203;-80
2022/10/27 06:08:19;;;;;;;4.03;2.37;;;14.60;99.90;;;;;;5066106;28;20203;-81
2022/10/27 06:10:49;;;;;;;3.70;2.00;;;14.60;99.90;;;;;;5063893;28;20666;-79
2022/10/27 06:13:17;;;;;;;8.20;2.50;;;14.60;99.90;;;;;;5060603;28;20243;-79
2022/10/27 06:15:44;;;;;;;5.57;2.67;;;14.60;99.90;;;;;;5059994;28;20670;-79
2022/10/27 06:18:18;;;;;;;5.87;2.10;;;14.60;99.90;;;;;;5061410;28;20218;-80
2022/10/27 06:20:47;;;;;;;6.87;2.20;;;14.60;99.90;;;;;;5061266;28;20199;-78
2022/10/27 06:23:14;;;;;;;4.23;2.00;;;14.50;99.90;;;;;;5064568;28;20199;-78
2022/10/27 06:25:45;;;;;;;3.13;2.23;;;14.50;99.90;;;;;;5062216;28;20199;-78
2022/10/27 06:28:13;;;;;;;4.37;1.70;;;14.50;99.90;;;;;;5062438;28;20206;-79
2022/10/27 06:30:39;;;;;;;3.70;2.37;;;14.50;99.90;;;;;;5060872;28;20217;-79
2022/10/27 06:36:04;;;;;;;4.77;1.87;;;14.70;99.90;;;;;;5068950;28;20631;-80
2022/10/27 06:38:34;;;;;;;4.00;1.70;;;14.80;99.90;;;;;;5064119;28;20232;-80
2022/10/27 06:41:01;;;;;;;3.30;1.80;;;14.80;99.90;;;;;;5064022;28;20200;-80
2022/10/27 06:43:28;;;;;;;4.30;1.70;;;14.80;99.90;;;;;;5063619;28;20234;-81
2022/10/27 06:45:55;;;;;;;5.53;1.80;;;14.90;99.90;;;;;;5063199;28;20207;-80
2022/10/27 06:48:22;;;;;;;3.23;1.90;;;14.90;99.90;;;;;;5045693;28;20206;-80
2022/10/27 06:50:50;;;;;;;6.17;1.50;;;15.00;99.90;;;;;;5064184;28;20224;-78
2022/10/27 06:53:19;;;;;;;3.87;2.43;;;15.00;99.90;;;;;;5063733;28;20210;-80
2022/10/27 06:55:54;;;;;;;4.27;1.73;;;15.00;99.90;;;;;;5063616;28;20287;-79
2022/10/27 06:58:23;;;;;;;5.22;1.92;;;15.00;99.90;;;;;;5063007;28;20528;-80
2022/10/27 07:00:51;;;;;;;4.43;1.90;;;15.10;99.90;;;;;;5053284;28;20230;-79
2022/10/27 07:03:18;;;;;;;9.57;2.50;;;15.20;99.90;;;;;;5031388;28;20246;-80
2022/10/27 07:05:45;;;;;;;5.57;1.97;;;15.20;99.90;;;;;;5024149;28;20201;-78
2022/10/27 07:08:12;;;;;;;10.00;2.60;;;15.10;99.90;;;;;;5025816;28;20214;-81
2022/10/27 07:10:56;;;;;;;6.07;2.50;;;15.20;99.90;;;;;;5026378;28;20233;-80
2022/10/27 07:13:24;;;;;;;7.83;2.20;;;15.20;99.90;;;;;;5020572;28;20219;-79
2022/10/27 07:15:51;;;;;;;4.40;1.70;;;15.10;99.90;;;;;;5023048;28;20213;-80
2022/10/27 07:18:19;;;;;;;8.13;1.57;;;15.10;99.90;;;;;;5024700;28;20214;-80
2022/10/27 07:20:47;;;;;;;2.87;1.70;;;15.20;99.90;;;;;;5051342;28;20204;-79
2022/10/27 07:23:20;;;;;;;9.93;1.97;;;15.30;99.90;;;;;;5062995;28;20212;-80
2022/10/27 07:25:53;;;;;;;8.43;1.80;;;15.30;99.90;;;;;;5057072;28;20205;-79
2022/10/27 07:28:21;;;;;;;2.90;1.90;;;15.40;99.90;;;;;;5059539;28;20201;-79
2022/10/27 07:30:48;;;;;;;3.47;1.63;;;15.40;99.90;;;;;;5054328;28;20576;-79
2022/10/27 07:33:15;;;;;;;1.87;1.13;;;15.60;99.90;;;;;;5059585;28;20668;-78
2022/10/27 07:35:42;;;;;;;4.07;1.77;;;15.70;99.90;;;;;;5057900;28;20221;-79
2022/10/27 07:38:09;;;;;;;3.27;2.00;;;15.70;99.90;;;;;;5056119;28;20701;-79
2022/10/27 07:40:36;;;;;;;5.27;1.17;;;15.90;99.90;;;;;;5056198;28;20787;-80
2022/10/27 07:43:05;;;;;;;2.53;1.43;;;16.00;99.90;;;;;;5055574;28;20364;-79
2022/10/27 07:45:33;;;;;;;2.80;1.30;;;16.20;99.90;;;;;;5049744;28;20203;-79
2022/10/27 07:48:02;;;;;;;4.03;1.33;;;16.20;99.90;;;;;;5046447;28;20209;-79
2022/10/27 07:50:32;;;;;;;3.10;1.40;;;16.20;99.90;;;;;;5055259;28;20554;-80
2022/10/27 07:53:00;;;;;;;3.00;1.80;;;16.20;99.90;;;;;;5037650;28;20199;-79
2022/10/27 07:55:31;;;;;;;5.13;2.13;;;16.40;99.90;;;;;;5055172;28;20200;-79
2022/10/27 07:57:59;;;;;;;4.00;1.30;;;16.40;99.90;;;;;;5051660;28;20195;-80
2022/10/27 08:00:28;;;;;;;3.53;1.57;;;16.50;99.90;;;;;;5054736;28;20226;-81
2022/10/27 08:02:55;;;;;;;4.60;1.80;;;16.60;99.90;;;;;;5047880;28;20448;-80
2022/10/27 08:05:22;;;;;;;4.90;1.80;;;16.70;99.90;;;;;;5055623;28;20198;-81
2022/10/27 08:07:49;;;;;;;3.60;1.97;;;16.60;99.90;;;;;;5054623;28;20549;-80
2022/10/27 08:10:17;;;;;;;4.10;1.97;;;16.70;99.90;;;;;;5054443;28;20192;-85
2022/10/27 08:12:45;;;;;;;3.97;2.00;;;16.80;99.90;;;;;;5053609;28;20204;-79
2022/10/27 08:15:12;;;;;;;6.03;1.97;;;16.80;99.90;;;;;;5042330;28;20211;-81
2022/10/27 08:17:40;;;;;;;5.13;1.67;;;16.90;99.90;;;;;;5035372;28;20239;-80
2022/10/27 08:20:09;;;;;;;4.87;1.80;;;17.00;99.90;;;;;;5049416;28;20586;-80
2022/10/27 08:22:36;;;;;;;8.53;5.00;;;17.20;99.90;;;;;;5053016;28;20221;-84
2022/10/27 08:25:03;;;;;;;4.07;2.03;;;17.30;99.90;;;;;;5053246;28;20222;-80
2022/10/27 08:27:32;;;;;;;5.23;2.33;;;17.40;99.90;;;;;;5052676;28;20683;-82
2022/10/27 08:29:59;;;;;;;3.27;1.70;;;17.30;99.90;;;;;;5052859;28;20206;-82
2022/10/27 08:32:26;;;;;;;2.73;1.90;;;17.40;99.90;;;;;;5053334;28;20643;-81
2022/10/27 08:34:54;;;;;;;5.80;1.80;;;17.50;99.90;;;;;;5052721;28;20193;-82
2022/10/27 08:37:21;;;;;;;4.57;2.00;;;17.50;99.90;;;;;;5052364;28;20198;-82
2022/10/27 08:39:48;;;;;;;7.80;1.93;;;17.60;99.90;;;;;;5052481;28;20230;-80
2022/10/27 08:42:24;;;;;;;8.70;2.10;;;17.70;99.90;;;;;;5052421;28;20209;-86
2022/10/27 08:44:57;;;;;;;6.67;2.10;;;17.70;99.90;;;;;;5053179;28;20224;-85
2022/10/27 08:47:26;;;;;;;4.17;2.00;;;17.80;99.90;;;;;;5049538;28;20198;-83
2022/10/27 08:49:58;;;;;;;4.67;2.03;;;18.00;99.90;;;;;;5051774;28;20260;-81
2022/10/27 08:52:29;;;;;;;3.53;1.70;;;18.00;99.90;;;;;;5052240;28;20684;-84
2022/10/27 08:55:01;;;;;;;6.90;2.10;;;18.10;99.90;;;;;;5051905;28;20206;-82
2022/10/27 08:57:33;;;;;;;3.83;1.80;;;18.30;99.90;;;;;;5051595;28;20206;-81
2022/10/27 09:00:00;;;;;;;4.23;2.07;;;18.40;99.90;;;;;;5052106;28;20333;-83
2022/10/27 09:03:03;;;;;;;4.83;1.70;;;18.50;99.90;;;;;;5052047;28;20194;-82
2022/10/27 09:05:40;;;;;;;3.73;1.70;;;18.70;99.90;;;;;;5050702;28;20213;-80
2022/10/27 09:08:17;;;;;;;2.90;1.67;;;18.80;99.90;;;;;;5051978;28;20194;-80
2022/10/27 09:10:52;;;;;;;4.00;1.60;;;18.80;99.90;;;;;;5048961;28;20202;-81
2022/10/27 09:13:29;;;;;;;4.83;2.13;;;18.80;99.90;;;;;;5047549;28;20213;-84
2022/10/27 09:16:01;;;;;;;4.73;2.30;;;18.80;99.90;;;;;;5046848;28;20198;-83
2022/10/27 09:18:34;;;;;;;3.80;1.80;;;18.80;99.90;;;;;;5052581;28;20202;-84
2022/10/27 09:21:09;;;;;;;6.10;1.67;;;18.80;99.90;;;;;;5019357;28;20203;-86
2022/10/27 09:23:38;;;;;;;7.63;1.90;;;19.00;99.90;;;;;;5034905;28;20213;-84
2022/10/27 09:26:05;;;;;;;5.20;2.10;;;19.10;99.90;;;;;;5047204;28;20190;-85
2022/10/27 09:28:40;;;;;;;6.10;1.83;;;19.20;99.90;;;;;;5037689;28;20209;-85
2022/10/27 09:31:14;;;;;;;4.80;2.30;;;19.40;99.90;;;;;;5032211;28;20205;-85
2022/10/27 09:33:49;;;;;;;3.83;2.20;;;19.50;99.90;;;;;;5032888;28;20226;-86
2022/10/27 09:36:21;;;;;;;5.33;2.30;;;19.40;99.90;;;;;;5032738;28;20574;-84
2022/10/27 09:38:51;;;;;;;3.70;1.80;;;19.40;99.90;;;;;;5034006;28;20225;-92
2022/10/27 09:41:21;;;;;;;9.37;1.80;;;19.40;99.90;;;;;;5034101;28;20210;-90
2022/10/27 09:43:54;;;;;;;5.97;2.10;;;19.50;99.90;;;;;;5033914;28;20210;-91
2022/10/27 09:46:25;;;;;;;6.40;2.53;;;19.60;99.90;;;;;;5049403;28;20198;-91
2022/10/27 09:48:58;;;;;;;5.30;2.07;;;19.70;99.90;;;;;;5053885;28;20228;-89
2022/10/27 09:51:39;;;;;;;5.13;2.50;;;19.80;99.90;;;;;;5053257;28;20198;-90
2022/10/27 09:54:28;;;;;;;8.70;2.27;;;19.90;99.90;;;;;;5053150;28;20533;-89
2022/10/27 09:57:07;;;;;;;8.40;2.40;;;19.90;99.90;;;;;;5043693;28;20210;-92
2022/10/27 09:59:35;;;;;;;13.03;2.43;;;20.00;99.90;;;;;;5054505;28;20234;-92
2022/10/27 10:02:24;;;;;;;6.43;2.27;;;20.00;99.90;;;;;;5049742;28;20290;-91
2022/10/27 10:04:51;;;;;;;7.83;2.33;;;19.90;99.90;;;;;;5053311;28;20206;-91
2022/10/27 10:07:32;;;;;;;6.83;2.43;;;20.10;99.90;;;;;;5053681;28;20205;-91
2022/10/27 10:10:14;;;;;;;7.60;1.90;;;20.30;99.90;;;;;;5056475;28;20194;-89
2022/10/27 10:12:41;;;;;;;9.27;2.33;;;20.40;99.90;;;;;;5056587;28;20210;-89
2022/10/27 10:15:20;;;;;;;3.50;1.83;;;20.40;99.90;;;;;;5057293;28;20221;-91
2022/10/27 10:17:58;;;;;;;8.37;2.33;;;20.50;99.90;;;;;;5057221;28;20198;-91
2022/10/27 10:20:34;;;;;;;5.43;2.80;;;20.50;99.90;;;;;;5057242;28;20234;-86
2022/10/27 10:23:03;;;;;;;7.20;2.00;;;20.70;99.90;;;;;;5057002;28;20198;-92
2022/10/27 10:25:46;;;;;;;6.57;2.90;;;20.90;99.90;;;;;;5039681;28;20206;-90
2022/10/27 10:28:19;;;;;;;9.33;2.20;;;21.20;99.90;;;;;;5057055;28;20186;-91
2022/10/27 10:30:51;;;;;;;4.57;2.43;;;21.10;99.90;;;;;;5055798;28;20202;-91
2022/10/27 10:33:19;;;;;;;8.77;2.67;;;21.20;99.90;;;;;;5056484;28;20218;-92
2022/10/27 10:35:47;;;;;;;9.73;2.30;;;21.30;99.90;;;;;;5056884;28;20568;-91
2022/10/27 10:38:30;;;;;;;6.47;2.47;;;21.40;99.90;;;;;;5042201;28;20211;-91
2022/10/27 10:41:01;;;;;;;7.43;2.33;;;21.70;99.90;;;;;;5036612;28;20235;-89
2022/10/27 10:43:29;;;;;;;7.93;2.90;;;21.90;99.90;;;;;;5035769;28;20210;-90
2022/10/27 10:45:57;;;;;;;7.67;2.33;;;22.00;99.90;;;;;;5036859;28;20195;-90
2022/10/27 10:48:46;;;;;;;6.00;1.90;;;22.00;99.90;;;;;;5035683;28;20795;-90
2022/10/27 10:51:13;;;;;;;6.23;2.07;;;21.90;99.90;;;;;;5036724;28;20255;-91
2022/10/27 10:53:50;;;;;;;5.93;2.40;;;22.00;99.90;;;;;;5036955;28;20210;-89
2022/10/27 10:56:22;;;;;;;8.87;2.70;;;22.10;99.90;;;;;;5037117;28;20566;-90
2022/10/27 10:58:55;;;;;;;11.47;2.47;;;22.20;99.90;;;;;;5036484;28;20207;-90
2022/10/27 11:01:22;;;;;;;7.57;2.67;;;22.10;99.90;;;;;;5036984;28;20213;-91
2022/10/27 11:03:56;;;;;;;5.97;2.30;;;22.40;99.90;;;;;;5035603;28;20207;-82
2022/10/27 11:06:22;;;;;;;8.37;2.70;;;22.40;99.90;;;;;;5035493;28;20202;-83
2022/10/27 11:08:58;;;;;;;6.50;2.53;;;22.40;99.90;;;;;;5035303;28;20199;-83
2022/10/27 11:11:28;;;;;;;6.10;2.40;;;22.30;99.90;;;;;;5035644;28;20203;-83
2022/10/27 11:13:59;;;;;;;7.30;2.50;;;22.40;99.90;;;;;;5034968;28;20269;-86
2022/10/27 11:16:27;;;;;;;8.70;2.43;;;22.30;99.90;;;;;;5035517;28;20207;-83
2022/10/27 11:18:58;;;;;;;10.37;3.00;;;22.30;99.90;;;;;;5034648;28;20203;-85
2022/10/27 11:21:36;;;;;;;7.33;2.63;;;22.30;99.90;;;;;;5036373;28;20549;-88
2022/10/27 11:24:14;;;;;;;7.03;2.47;;;22.10;99.90;;;;;;5035868;28;20203;-89
2022/10/27 11:26:52;;;;;;;6.67;2.43;;;22.30;99.90;;;;;;5036108;28;20196;-91
2022/10/27 11:29:26;;;;;;;6.17;2.23;;;22.20;99.90;;;;;;5036253;28;20211;-91
2022/10/27 11:32:03;;;;;;;11.67;2.97;;;22.30;99.90;;;;;;5036104;28;20214;-88
2022/10/27 11:34:39;;;;;;;12.03;2.70;;;22.30;99.90;;;;;;5035762;28;20203;-90
2022/10/27 11:37:10;;;;;;;7.07;3.00;;;22.30;99.90;;;;;;5035925;28;20214;-89
2022/10/27 11:39:46;;;;;;;7.37;2.80;;;22.30;99.90;;;;;;5035925;28;20694;-88
2022/10/27 11:42:24;;;;;;;6.70;2.60;;;22.20;99.90;;;;;;5035691;28;20298;-88
2022/10/27 11:45:01;;;;;;;7.23;2.40;;;22.20;99.90;;;;;;5035338;28;20572;-90
2022/10/27 11:47:34;;;;;;;8.43;2.60;;;22.30;99.90;;;;;;5040339;28;20206;-88
2022/10/27 11:50:06;;;;;;;10.67;2.90;;;22.30;99.90;;;;;;5034556;28;20191;-87
2022/10/27 11:52:40;;;;;;;5.37;2.83;;;22.30;99.90;;;;;;5035631;28;20200;-86
2022/10/27 11:55:12;;;;;;;11.80;3.33;;;22.40;99.90;;;;;;5033349;28;20198;-80
2022/10/27 11:57:44;;;;;;;7.63;2.50;;;22.50;99.90;;;;;;5034118;28;20581;-81
2022/10/27 12:00:17;;;;;;;8.93;2.67;;;22.50;99.90;;;;;;5033787;28;20284;-81
2022/10/27 12:03:07;;;;;;;9.13;2.97;;;22.50;99.90;;;;;;5053558;28;20653;-81
2022/10/27 12:05:40;;;;;;;11.77;3.10;;;22.70;99.90;;;;;;5054339;28;20205;-84
2022/10/27 12:08:21;;;;;;;9.00;2.73;;;22.70;99.90;;;;;;5053628;28;20646;-85
2022/10/27 12:11:00;;;;;;;9.73;2.90;;;22.80;99.90;;;;;;5053812;28;20182;-84
2022/10/27 12:13:37;;;;;;;9.60;2.97;;;22.70;99.90;;;;;;5053643;28;20680;-84
2022/10/27 12:16:10;;;;;;;6.20;3.10;;;22.60;99.90;;;;;;5050045;28;20197;-85
2022/10/27 12:18:44;;;;;;;7.67;2.83;;;22.60;99.90;;;;;;5053925;28;20200;-86
2022/10/27 12:21:17;;;;;;;11.77;3.60;;;22.60;99.90;;;;;;5050835;28;20235;-84
2022/10/27 12:23:49;;;;;;;6.47;3.23;;;22.80;99.90;;;;;;5034259;28;20231;-83
2022/10/27 12:26:24;;;;;;;9.53;3.17;;;22.80;99.90;;;;;;5033285;28;20669;-85
2022/10/27 12:28:52;;;;;;;10.63;3.27;;;22.90;99.90;;;;;;5033653;28;20187;-82
2022/10/27 12:31:23;;;;;;;7.57;3.10;;;23.00;99.90;;;;;;5032999;28;20195;-81
2022/10/27 12:33:55;;;;;;;10.03;2.83;;;22.90;99.90;;;;;;5033260;28;20200;-83
2022/10/27 12:36:28;;;;;;;5.57;2.43;;;22.90;99.90;;;;;;5033311;28;20677;-84
2022/10/27 12:39:03;;;;;;;9.50;2.90;;;22.80;99.90;;;;;;5033372;28;20706;-85
2022/10/27 12:41:40;;;;;;;6.10;2.83;;;22.70;99.90;;;;;;5033727;28;20234;-86
2022/10/27 12:44:18;;;;;;;5.93;2.67;;;22.30;99.90;;;;;;5037005;28;20201;-85
2022/10/27 12:47:04;;;;;;;6.27;2.57;;;22.10;99.90;;;;;;5053399;28;20202;-85
2022/10/27 12:49:44;;;;;;;7.45;2.45;;;22.10;99.90;;;;;;5045988;28;20518;-86
2022/10/27 12:52:17;;;;;;;3.93;2.37;;;22.20;99.90;;;;;;5033380;28;20210;-83
2022/10/27 12:55:05;;;;;;;10.00;2.63;;;22.20;99.90;;;;;;5015328;28;20203;-83
2022/10/27 12:57:47;;;;;;;8.60;2.30;;;22.30;99.90;;;;;;5033352;28;20192;-85
2022/10/27 13:00:18;;;;;;;6.33;2.23;;;22.30;99.90;;;;;;5033392;28;20250;-85
2022/10/27 13:03:05;;;;;;;8.40;2.40;;;22.40;99.90;;;;;;5033222;28;20202;-85
2022/10/27 13:05:52;;;;;;;9.93;3.03;;;22.50;99.90;;;;;;5033417;28;20199;-85
2022/10/27 13:08:59;;;;;;;7.70;2.40;;;22.50;99.90;;;;;;5033324;28;20253;-85
2022/10/27 13:11:39;;;;;;;10.90;3.20;;;22.40;99.90;;;;;;4972475;28;20236;-84